sensor_id;sensor_type;location;lat;lon;timestamp;pressure;altitude;pressure_sealevel;temperature;humidity
34185;BME280;20454;48.100;11.776;2022-08-01T00:01:04;95386.72;;;20.20;65.00
34185;BME280;20454;48.100;11.776;2022-08-01T00:03:29;95388.78;;;20.23;64.94
34185;BME280;20454;48.100;11.776;2022-08-01T00:05:55;95386.00;;;20.26;64.46
34185;BME280;20454;48.100;11.776;2022-08-01T00:08:21;95385.22;;;20.29;64.27
34185;BME280;20454;48.100;11.776;2022-08-01T00:10:47;95382.06;;;20.34;63.98
34185;BME280;20454;48.100;11.776;2022-08-01T00:13:13;95380.84;;;20.35;63.54
34185;BME280;20454;48.100;11.776;2022-08-01T00:15:39;95378.81;;;20.36;63.71
34185;BME280;20454;48.100;11.776;2022-08-01T00:18:04;95382.13;;;20.41;63.32
34185;BME280;20454;48.100;11.776;2022-08-01T00:20:30;95387.38;;;20.42;63.05
34185;BME280;20454;48.100;11.776;2022-08-01T00:22:56;95390.25;;;20.46;63.00
34185;BME280;20454;48.100;11.776;2022-08-01T00:25:22;95393.50;;;20.48;62.80
34185;BME280;20454;48.100;11.776;2022-08-01T00:27:47;95390.25;;;20.46;62.54
34185;BME280;20454;48.100;11.776;2022-08-01T00:30:13;95389.84;;;20.48;62.79
34185;BME280;20454;48.100;11.776;2022-08-01T00:32:39;95398.41;;;20.54;62.75
34185;BME280;20454;48.100;11.776;2022-08-01T00:35:05;95398.00;;;20.52;62.91
34185;BME280;20454;48.100;11.776;2022-08-01T00:37:31;95390.31;;;20.50;63.04
34185;BME280;20454;48.100;11.776;2022-08-01T00:39:57;95399.66;;;20.57;62.80
34185;BME280;20454;48.100;11.776;2022-08-01T00:42:23;95396.03;;;20.57;63.46
34185;BME280;20454;48.100;11.776;2022-08-01T00:44:48;95407.34;;;20.57;63.68
34185;BME280;20454;48.100;11.776;2022-08-01T00:47:14;95400.03;;;20.55;64.13
34185;BME280;20454;48.100;11.776;2022-08-01T00:49:40;95397.19;;;20.55;63.85
34185;BME280;20454;48.100;11.776;2022-08-01T00:52:06;95398.41;;;20.54;63.89
34185;BME280;20454;48.100;11.776;2022-08-01T00:54:34;95388.66;;;20.48;63.57
34185;BME280;20454;48.100;11.776;2022-08-01T00:57:00;95394.78;;;20.54;63.16
34185;BME280;20454;48.100;11.776;2022-08-01T00:59:26;95398.03;;;20.56;63.07
34185;BME280;20454;48.100;11.776;2022-08-01T01:01:52;95408.13;;;20.57;63.20
34185;BME280;20454;48.100;11.776;2022-08-01T01:04:18;95403.69;;;20.56;63.11
34185;BME280;20454;48.100;11.776;2022-08-01T01:07:21;95405.28;;;20.53;63.60
34185;BME280;20454;48.100;11.776;2022-08-01T01:10:15;95399.53;;;20.47;63.90
34185;BME280;20454;48.100;11.776;2022-08-01T01:13:13;95400.72;;;20.42;63.83
34185;BME280;20454;48.100;11.776;2022-08-01T01:16:01;95397.06;;;20.42;63.66
34185;BME280;20454;48.100;11.776;2022-08-01T01:18:38;95399.84;;;20.38;64.05
34185;BME280;20454;48.100;11.776;2022-08-01T01:24:13;95401.44;;;20.36;63.80
34185;BME280;20454;48.100;11.776;2022-08-01T01:27:10;95410.31;;;20.34;63.71
34185;BME280;20454;48.100;11.776;2022-08-01T01:29:52;95411.91;;;20.32;63.77
34185;BME280;20454;48.100;11.776;2022-08-01T01:32:34;95407.44;;;20.31;63.25
34185;BME280;20454;48.100;11.776;2022-08-01T01:35:10;95405.81;;;20.30;63.20
34185;BME280;20454;48.100;11.776;2022-08-01T01:37:39;95405.00;;;20.29;62.85
34185;BME280;20454;48.100;11.776;2022-08-01T01:40:09;95402.59;;;20.31;62.72
34185;BME280;20454;48.100;11.776;2022-08-01T01:42:37;95408.25;;;20.31;62.85
34185;BME280;20454;48.100;11.776;2022-08-01T01:45:05;95407.41;;;20.27;62.42
34185;BME280;20454;48.100;11.776;2022-08-01T01:47:33;95407.81;;;20.29;62.59
34185;BME280;20454;48.100;11.776;2022-08-01T01:50:02;95398.88;;;20.24;62.41
34185;BME280;20454;48.100;11.776;2022-08-01T01:52:29;95404.59;;;20.27;62.33
34185;BME280;20454;48.100;11.776;2022-08-01T01:54:58;95406.97;;;20.25;62.42
34185;BME280;20454;48.100;11.776;2022-08-01T01:57:28;95404.91;;;20.22;62.29
34185;BME280;20454;48.100;11.776;2022-08-01T01:59:56;95401.25;;;20.22;62.42
34185;BME280;20454;48.100;11.776;2022-08-01T04:32:42;95493.97;;;19.12;65.38
34185;BME280;20454;48.100;11.776;2022-08-01T04:35:13;95496.44;;;19.14;65.52
34185;BME280;20454;48.100;11.776;2022-08-01T04:37:44;95499.69;;;19.16;65.19
34185;BME280;20454;48.100;11.776;2022-08-01T04:40:12;95504.59;;;19.19;65.16
34185;BME280;20454;48.100;11.776;2022-08-01T04:42:38;95509.84;;;19.20;64.64
34185;BME280;20454;48.100;11.776;2022-08-01T04:45:05;95504.72;;;19.26;64.40
34185;BME280;20454;48.100;11.776;2022-08-01T04:47:35;95514.47;;;19.32;64.05
34185;BME280;20454;48.100;11.776;2022-08-01T04:50:05;95508.53;;;19.37;63.83
34185;BME280;20454;48.100;11.776;2022-08-01T04:52:34;95508.97;;;19.39;63.83
34185;BME280;20454;48.100;11.776;2022-08-01T04:55:00;95505.75;;;19.40;63.38
34185;BME280;20454;48.100;11.776;2022-08-01T04:57:26;95506.19;;;19.42;63.13
34185;BME280;20454;48.100;11.776;2022-08-01T04:59:52;95515.19;;;19.48;63.47
34185;BME280;20454;48.100;11.776;2022-08-01T05:02:22;95512.78;;;19.50;63.19
34185;BME280;20454;48.100;11.776;2022-08-01T05:04:48;95513.66;;;19.54;63.02
34185;BME280;20454;48.100;11.776;2022-08-01T05:07:15;95517.34;;;19.58;63.18
34185;BME280;20454;48.100;11.776;2022-08-01T05:09:42;95501.22;;;19.58;62.82
34185;BME280;20454;48.100;11.776;2022-08-01T05:12:08;95517.09;;;19.66;62.29
34185;BME280;20454;48.100;11.776;2022-08-01T05:14:35;95510.28;;;19.71;62.49
34185;BME280;20454;48.100;11.776;2022-08-01T05:17:03;95519.25;;;19.76;62.58
34185;BME280;20454;48.100;11.776;2022-08-01T05:19:39;95516.16;;;19.85;62.07
34185;BME280;20454;48.100;11.776;2022-08-01T05:22:08;95517.09;;;19.92;62.02
34185;BME280;20454;48.100;11.776;2022-08-01T05:24:37;95512.69;;;19.95;61.78
34185;BME280;20454;48.100;11.776;2022-08-01T05:27:03;95518.13;;;20.07;61.66
34185;BME280;20454;48.100;11.776;2022-08-01T05:29:30;95519.00;;;20.11;61.41
34185;BME280;20454;48.100;11.776;2022-08-01T05:31:56;95523.06;;;20.13;61.39
34185;BME280;20454;48.100;11.776;2022-08-01T05:34:23;95516.22;;;20.14;61.19
34185;BME280;20454;48.100;11.776;2022-08-01T05:36:48;95526.47;;;20.26;61.11
34185;BME280;20454;48.100;11.776;2022-08-01T05:39:14;95526.09;;;20.27;61.29
34185;BME280;20454;48.100;11.776;2022-08-01T05:41:41;95526.88;;;20.28;61.01
34185;BME280;20454;48.100;11.776;2022-08-01T05:44:07;95532.16;;;20.29;60.77
34185;BME280;20454;48.100;11.776;2022-08-01T05:46:34;95531.38;;;20.32;61.17
34185;BME280;20454;48.100;11.776;2022-08-01T05:49:01;95535.88;;;20.33;60.40
34185;BME280;20454;48.100;11.776;2022-08-01T05:51:28;95533.09;;;20.37;60.65
34185;BME280;20454;48.100;11.776;2022-08-01T05:53:54;95543.66;;;20.43;60.75
34185;BME280;20454;48.100;11.776;2022-08-01T05:56:21;95534.44;;;20.46;60.77
34185;BME280;20454;48.100;11.776;2022-08-01T05:58:48;95531.69;;;20.53;60.52
34185;BME280;20454;48.100;11.776;2022-08-01T06:01:15;95540.66;;;20.58;60.63
34185;BME280;20454;48.100;11.776;2022-08-01T06:03:41;95538.69;;;20.66;60.75
34185;BME280;20454;48.100;11.776;2022-08-01T06:06:07;95540.47;;;20.77;59.97
34185;BME280;20454;48.100;11.776;2022-08-01T06:08:33;95541.84;;;20.90;58.36
34185;BME280;20454;48.100;11.776;2022-08-01T06:10:59;95545.13;;;20.92;58.83
34185;BME280;20454;48.100;11.776;2022-08-01T06:13:25;95550.03;;;20.99;59.40
34185;BME280;20454;48.100;11.776;2022-08-01T06:15:51;95540.38;;;21.03;59.13
34185;BME280;20454;48.100;11.776;2022-08-01T06:18:17;95542.88;;;21.08;59.30
34185;BME280;20454;48.100;11.776;2022-08-01T06:20:43;95551.09;;;21.20;59.25
34185;BME280;20454;48.100;11.776;2022-08-01T06:23:10;95547.16;;;21.32;58.23
34185;BME280;20454;48.100;11.776;2022-08-01T06:25:36;95549.66;;;21.37;58.10
34185;BME280;20454;48.100;11.776;2022-08-01T06:28:02;95549.72;;;21.44;58.12
34185;BME280;20454;48.100;11.776;2022-08-01T06:30:28;95552.19;;;21.52;57.79
34185;BME280;20454;48.100;11.776;2022-08-01T06:32:54;95549.00;;;21.57;57.47
34185;BME280;20454;48.100;11.776;2022-08-01T06:35:27;95556.41;;;21.69;56.70
34185;BME280;20454;48.100;11.776;2022-08-01T06:37:55;95562.19;;;21.79;56.08
34185;BME280;20454;48.100;11.776;2022-08-01T06:40:21;95550.91;;;21.86;55.35
34185;BME280;20454;48.100;11.776;2022-08-01T06:42:47;95548.09;;;21.90;54.94
34185;BME280;20454;48.100;11.776;2022-08-01T06:45:13;95556.66;;;21.97;55.78
34185;BME280;20454;48.100;11.776;2022-08-01T06:47:41;95549.38;;;21.99;55.35
34185;BME280;20454;48.100;11.776;2022-08-01T06:50:08;95546.19;;;22.04;56.00
34185;BME280;20454;48.100;11.776;2022-08-01T06:52:35;95551.88;;;22.08;56.09
34185;BME280;20454;48.100;11.776;2022-08-01T06:55:02;95551.19;;;22.25;54.70
34185;BME280;20454;48.100;11.776;2022-08-01T06:57:29;95543.47;;;22.22;54.43
34185;BME280;20454;48.100;11.776;2022-08-01T06:59:55;95544.34;;;22.29;55.07
34185;BME280;20454;48.100;11.776;2022-08-01T07:02:21;95546.41;;;22.36;53.42
34185;BME280;20454;48.100;11.776;2022-08-01T07:04:47;95544.38;;;22.36;54.37
34185;BME280;20454;48.100;11.776;2022-08-01T07:07:13;95545.25;;;22.44;54.16
34185;BME280;20454;48.100;11.776;2022-08-01T07:09:39;95546.50;;;22.50;54.76
34185;BME280;20454;48.100;11.776;2022-08-01T07:12:08;95544.06;;;22.52;54.27
34185;BME280;20454;48.100;11.776;2022-08-01T07:17:09;95542.50;;;22.61;54.38
34185;BME280;20454;48.100;11.776;2022-08-01T07:19:35;95542.13;;;22.63;54.23
34185;BME280;20454;48.100;11.776;2022-08-01T10:18:15;95481.47;;;29.34;39.95
34185;BME280;20454;48.100;11.776;2022-08-01T10:20:41;95475.47;;;29.44;36.91
34185;BME280;20454;48.100;11.776;2022-08-01T10:23:07;95476.19;;;29.32;37.35
34185;BME280;20454;48.100;11.776;2022-08-01T10:25:40;95476.63;;;28.92;37.14
34185;BME280;20454;48.100;11.776;2022-08-01T10:28:16;95479.38;;;29.18;39.31
34185;BME280;20454;48.100;11.776;2022-08-01T10:30:43;95480.59;;;29.37;38.29
34185;BME280;20454;48.100;11.776;2022-08-01T10:33:10;95468.50;;;29.10;38.50
34185;BME280;20454;48.100;11.776;2022-08-01T10:35:38;95461.34;;;29.18;38.54
34185;BME280;20454;48.100;11.776;2022-08-01T10:38:05;95470.47;;;29.13;39.28
34185;BME280;20454;48.100;11.776;2022-08-01T10:40:31;95474.22;;;28.90;39.60
34185;BME280;20454;48.100;11.776;2022-08-01T10:42:57;95466.84;;;28.89;40.06
34185;BME280;20454;48.100;11.776;2022-08-01T10:45:24;95465.59;;;29.29;39.20
34185;BME280;20454;48.100;11.776;2022-08-01T10:51:01;95456.59;;;29.98;37.24
34185;BME280;20454;48.100;11.776;2022-08-01T10:53:28;95468.50;;;29.65;37.85
34185;BME280;20454;48.100;11.776;2022-08-01T10:58:33;95460.50;;;29.56;38.09
34185;BME280;20454;48.100;11.776;2022-08-01T11:01:15;95458.03;;;29.90;38.88
34185;BME280;20454;48.100;11.776;2022-08-01T11:03:44;95463.72;;;30.54;35.39
34185;BME280;20454;48.100;11.776;2022-08-01T11:06:17;95449.97;;;31.06;34.56
34185;BME280;20454;48.100;11.776;2022-08-01T11:08:52;95447.97;;;31.19;34.66
34185;BME280;20454;48.100;11.776;2022-08-01T11:11:20;95450.72;;;30.94;35.53
34185;BME280;20454;48.100;11.776;2022-08-01T11:14:02;95448.41;;;31.18;33.50
34185;BME280;20454;48.100;11.776;2022-08-01T11:16:40;95432.66;;;31.35;33.37
34185;BME280;20454;48.100;11.776;2022-08-01T11:19:07;95419.59;;;31.96;33.97
34185;BME280;20454;48.100;11.776;2022-08-01T11:27:30;95423.38;;;34.69;29.20
34185;BME280;20454;48.100;11.776;2022-08-01T11:35:18;95428.81;;;34.00;30.88
34185;BME280;20454;48.100;11.776;2022-08-01T11:37:46;95432.06;;;33.08;31.79
34185;BME280;20454;48.100;11.776;2022-08-01T11:40:28;95427.16;;;33.17;32.31
34185;BME280;20454;48.100;11.776;2022-08-01T11:43:16;95423.19;;;33.97;31.57
34185;BME280;20454;48.100;11.776;2022-08-01T11:45:53;95421.16;;;34.82;31.01
34185;BME280;20454;48.100;11.776;2022-08-01T11:48:25;95416.00;;;35.31;29.06
34185;BME280;20454;48.100;11.776;2022-08-01T11:50:53;95410.91;;;35.85;26.63
34185;BME280;20454;48.100;11.776;2022-08-01T11:53:19;95417.06;;;36.20;27.97
34185;BME280;20454;48.100;11.776;2022-08-01T11:55:53;95411.22;;;36.61;27.97
34185;BME280;20454;48.100;11.776;2022-08-01T11:58:25;95421.91;;;36.93;26.49
34185;BME280;20454;48.100;11.776;2022-08-01T12:00:56;95416.13;;;36.70;26.60
34185;BME280;20454;48.100;11.776;2022-08-01T12:03:31;95418.09;;;35.39;27.07
34185;BME280;20454;48.100;11.776;2022-08-01T12:05:58;95426.56;;;34.62;27.57
34185;BME280;20454;48.100;11.776;2022-08-01T12:08:30;95418.91;;;34.77;28.41
34185;BME280;20454;48.100;11.776;2022-08-01T12:11:03;95404.28;;;35.25;29.16
34185;BME280;20454;48.100;11.776;2022-08-01T12:13:42;95400.84;;;35.54;26.01
34185;BME280;20454;48.100;11.776;2022-08-01T12:16:10;95406.53;;;35.90;26.42
34185;BME280;20454;48.100;11.776;2022-08-01T12:18:43;95415.47;;;36.42;27.06
34185;BME280;20454;48.100;11.776;2022-08-01T12:21:09;95399.25;;;37.06;26.59
34185;BME280;20454;48.100;11.776;2022-08-01T12:23:35;95396.00;;;37.42;25.65
34185;BME280;20454;48.100;11.776;2022-08-01T12:26:01;95405.06;;;37.59;23.66
34185;BME280;20454;48.100;11.776;2022-08-01T12:28:29;95399.69;;;37.28;23.84
34185;BME280;20454;48.100;11.776;2022-08-01T12:30:55;95393.31;;;36.30;24.21
34185;BME280;20454;48.100;11.776;2022-08-01T12:33:21;95398.22;;;35.65;26.18
34185;BME280;20454;48.100;11.776;2022-08-01T12:35:47;95397.84;;;35.21;27.64
34185;BME280;20454;48.100;11.776;2022-08-01T12:38:21;95397.38;;;35.05;27.27
34185;BME280;20454;48.100;11.776;2022-08-01T12:40:52;95387.72;;;34.90;27.11
34185;BME280;20454;48.100;11.776;2022-08-01T12:43:20;95396.91;;;34.97;28.07
34185;BME280;20454;48.100;11.776;2022-08-01T12:45:49;95385.94;;;35.10;27.14
34185;BME280;20454;48.100;11.776;2022-08-01T12:48:17;95386.09;;;35.34;28.35
34185;BME280;20454;48.100;11.776;2022-08-01T12:50:47;95391.44;;;36.18;26.51
34185;BME280;20454;48.100;11.776;2022-08-01T12:53:15;95373.56;;;36.20;24.64
34185;BME280;20454;48.100;11.776;2022-08-01T12:55:53;95373.91;;;35.80;27.62
34185;BME280;20454;48.100;11.776;2022-08-01T12:58:20;95374.03;;;35.86;25.97
34185;BME280;20454;48.100;11.776;2022-08-01T13:01:04;95379.59;;;35.57;27.08
34185;BME280;20454;48.100;11.776;2022-08-01T13:03:30;95387.56;;;34.93;26.65
34185;BME280;20454;48.100;11.776;2022-08-01T13:05:58;95382.28;;;34.07;27.37
34185;BME280;20454;48.100;11.776;2022-08-01T13:08:34;95369.78;;;33.41;29.58
34185;BME280;20454;48.100;11.776;2022-08-01T13:11:03;95371.38;;;32.90;28.93
34185;BME280;20454;48.100;11.776;2022-08-01T13:13:45;95375.66;;;32.30;28.67
34185;BME280;20454;48.100;11.776;2022-08-01T13:16:12;95372.03;;;31.92;28.79
34185;BME280;20454;48.100;11.776;2022-08-01T13:18:39;95361.91;;;31.75;28.94
34185;BME280;20454;48.100;11.776;2022-08-01T13:21:23;95371.78;;;31.86;31.72
34185;BME280;20454;48.100;11.776;2022-08-01T13:24:06;95368.75;;;32.27;30.74
34185;BME280;20454;48.100;11.776;2022-08-01T13:26:55;95367.34;;;33.09;30.33
34185;BME280;20454;48.100;11.776;2022-08-01T13:29:37;95357.28;;;33.13;29.82
34185;BME280;20454;48.100;11.776;2022-08-01T13:32:19;95361.38;;;33.03;30.43
34185;BME280;20454;48.100;11.776;2022-08-01T13:34:45;95357.63;;;32.72;30.16
34185;BME280;20454;48.100;11.776;2022-08-01T13:37:11;95365.28;;;32.20;30.62
34185;BME280;20454;48.100;11.776;2022-08-01T13:39:36;95362.97;;;31.56;31.56
34185;BME280;20454;48.100;11.776;2022-08-01T13:42:12;95367.69;;;30.96;32.67
34185;BME280;20454;48.100;11.776;2022-08-01T13:44:38;95367.97;;;30.45;32.98
34185;BME280;20454;48.100;11.776;2022-08-01T13:47:04;95371.47;;;30.08;33.87
34185;BME280;20454;48.100;11.776;2022-08-01T13:49:31;95377.69;;;29.74;35.36
34185;BME280;20454;48.100;11.776;2022-08-01T13:51:57;95377.63;;;29.42;36.09
34185;BME280;20454;48.100;11.776;2022-08-01T13:54:23;95375.88;;;29.13;37.63
34185;BME280;20454;48.100;11.776;2022-08-01T13:56:50;95377.09;;;28.96;37.89
34185;BME280;20454;48.100;11.776;2022-08-01T13:59:16;95379.22;;;28.72;37.64
34185;BME280;20454;48.100;11.776;2022-08-01T14:01:42;95380.34;;;28.59;37.89
34185;BME280;20454;48.100;11.776;2022-08-01T14:04:08;95387.66;;;28.40;38.34
34185;BME280;20454;48.100;11.776;2022-08-01T14:06:34;95381.81;;;28.24;37.02
34185;BME280;20454;48.100;11.776;2022-08-01T14:09:06;95382.31;;;28.19;36.84
34185;BME280;20454;48.100;11.776;2022-08-01T14:11:32;95389.31;;;28.18;38.16
34185;BME280;20454;48.100;11.776;2022-08-01T14:13:58;95383.97;;;28.20;36.44
34185;BME280;20454;48.100;11.776;2022-08-01T14:16:24;95387.47;;;28.28;37.71
34185;BME280;20454;48.100;11.776;2022-08-01T14:18:50;95381.03;;;28.24;38.72
34185;BME280;20454;48.100;11.776;2022-08-01T14:21:16;95379.91;;;28.18;38.27
34185;BME280;20454;48.100;11.776;2022-08-01T14:23:42;95387.31;;;28.15;39.24
34185;BME280;20454;48.100;11.776;2022-08-01T14:26:09;95388.19;;;28.12;39.84
34185;BME280;20454;48.100;11.776;2022-08-01T14:28:37;95401.78;;;28.08;38.97
34185;BME280;20454;48.100;11.776;2022-08-01T14:31:03;95401.78;;;28.08;39.12
34185;BME280;20454;48.100;11.776;2022-08-01T14:33:31;95398.16;;;28.04;38.51
34185;BME280;20454;48.100;11.776;2022-08-01T14:35:57;95403.88;;;28.04;37.62
34185;BME280;20454;48.100;11.776;2022-08-01T14:38:23;95405.63;;;27.98;36.77
34185;BME280;20454;48.100;11.776;2022-08-01T14:40:49;95399.97;;;27.95;37.65
34185;BME280;20454;48.100;11.776;2022-08-01T14:43:19;95405.16;;;27.80;38.34
34185;BME280;20454;48.100;11.776;2022-08-01T14:45:45;95413.81;;;27.73;38.57
34185;BME280;20454;48.100;11.776;2022-08-01T14:48:18;95408.72;;;27.61;39.10
34185;BME280;20454;48.100;11.776;2022-08-01T14:50:44;95400.69;;;27.53;39.74
34185;BME280;20454;48.100;11.776;2022-08-01T14:53:10;95403.16;;;27.51;39.89
34185;BME280;20454;48.100;11.776;2022-08-01T14:55:35;95401.91;;;27.52;40.56
34185;BME280;20454;48.100;11.776;2022-08-01T14:58:01;95401.84;;;27.55;41.34
34185;BME280;20454;48.100;11.776;2022-08-01T15:00:27;95404.72;;;27.55;40.20
34185;BME280;20454;48.100;11.776;2022-08-01T15:02:53;95407.28;;;27.50;40.79
34185;BME280;20454;48.100;11.776;2022-08-01T15:05:19;95408.00;;;27.54;40.98
34185;BME280;20454;48.100;11.776;2022-08-01T15:07:45;95408.41;;;27.56;41.06
34185;BME280;20454;48.100;11.776;2022-08-01T15:10:11;95409.66;;;27.55;40.89
34185;BME280;20454;48.100;11.776;2022-08-01T15:12:36;95411.38;;;27.49;41.46
34185;BME280;20454;48.100;11.776;2022-08-01T15:15:03;95412.75;;;27.41;41.76
34185;BME280;20454;48.100;11.776;2022-08-01T15:17:31;95415.25;;;27.35;42.36
34185;BME280;20454;48.100;11.776;2022-08-01T15:20:02;95413.28;;;27.32;43.00
34185;BME280;20454;48.100;11.776;2022-08-01T15:22:29;95406.78;;;27.28;44.09
34185;BME280;20454;48.100;11.776;2022-08-01T15:24:57;95431.31;;;27.26;44.27
34185;BME280;20454;48.100;11.776;2022-08-01T15:27:24;95426.06;;;27.24;44.51
34185;BME280;20454;48.100;11.776;2022-08-01T15:29:52;95431.06;;;27.17;44.98
34185;BME280;20454;48.100;11.776;2022-08-01T15:32:18;95429.16;;;27.07;45.35
34185;BME280;20454;48.100;11.776;2022-08-01T15:34:44;95433.47;;;26.88;45.03
34185;BME280;20454;48.100;11.776;2022-08-01T15:37:11;95435.66;;;26.77;45.25
34185;BME280;20454;48.100;11.776;2022-08-01T15:39:37;95434.59;;;26.65;45.81
34185;BME280;20454;48.100;11.776;2022-08-01T15:42:15;95440.09;;;26.49;46.02
34185;BME280;20454;48.100;11.776;2022-08-01T15:44:41;95445.50;;;26.36;46.24
34185;BME280;20454;48.100;11.776;2022-08-01T15:47:08;95428.53;;;26.22;46.15
34185;BME280;20454;48.100;11.776;2022-08-01T15:49:36;95424.97;;;26.15;46.15
34185;BME280;20454;48.100;11.776;2022-08-01T15:52:08;95434.44;;;26.05;46.34
34185;BME280;20454;48.100;11.776;2022-08-01T15:54:35;95437.41;;;25.94;47.15
34185;BME280;20454;48.100;11.776;2022-08-01T15:57:01;95446.06;;;25.80;47.54
34185;BME280;20454;48.100;11.776;2022-08-01T15:59:27;95441.66;;;25.72;48.30
34185;BME280;20454;48.100;11.776;2022-08-01T16:01:54;95452.34;;;25.61;48.51
34185;BME280;20454;48.100;11.776;2022-08-01T16:04:19;95459.31;;;25.53;48.45
34185;BME280;20454;48.100;11.776;2022-08-01T16:06:46;95442.78;;;25.38;49.14
34185;BME280;20454;48.100;11.776;2022-08-01T16:09:12;95447.72;;;25.27;50.28
34185;BME280;20454;48.100;11.776;2022-08-01T16:11:38;95449.75;;;25.19;50.57
34185;BME280;20454;48.100;11.776;2022-08-01T16:14:04;95452.69;;;25.09;51.51
34185;BME280;20454;48.100;11.776;2022-08-01T16:16:31;95445.91;;;24.92;52.18
34185;BME280;20454;48.100;11.776;2022-08-01T16:18:57;95453.66;;;24.81;52.57
34185;BME280;20454;48.100;11.776;2022-08-01T16:21:22;95436.28;;;24.65;53.06
34185;BME280;20454;48.100;11.776;2022-08-01T16:23:50;95447.66;;;24.65;53.42
34185;BME280;20454;48.100;11.776;2022-08-01T16:26:16;95452.50;;;24.68;53.74
34185;BME280;20454;48.100;11.776;2022-08-01T16:28:42;95450.09;;;24.63;54.01
34185;BME280;20454;48.100;11.776;2022-08-01T19:32:08;95545.13;;;22.26;60.11
34185;BME280;20454;48.100;11.776;2022-08-01T19:34:41;95550.34;;;22.17;62.90
34185;BME280;20454;48.100;11.776;2022-08-01T19:37:08;95526.34;;;22.01;67.73
34185;BME280;20454;48.100;11.776;2022-08-01T19:39:35;95537.13;;;21.81;73.87
34185;BME280;20454;48.100;11.776;2022-08-01T19:42:01;95540.50;;;21.54;76.50
34185;BME280;20454;48.100;11.776;2022-08-01T19:44:28;95530.53;;;21.27;80.42
34185;BME280;20454;48.100;11.776;2022-08-01T19:46:55;95530.72;;;21.08;82.58
34185;BME280;20454;48.100;11.776;2022-08-01T19:49:22;95527.31;;;20.92;84.23
34185;BME280;20454;48.100;11.776;2022-08-01T19:52:00;95541.31;;;20.81;83.32
34185;BME280;20454;48.100;11.776;2022-08-01T19:54:33;95536.75;;;20.70;82.92
34185;BME280;20454;48.100;11.776;2022-08-01T19:57:03;95543.09;;;20.60;83.42
34185;BME280;20454;48.100;11.776;2022-08-01T19:59:32;95536.06;;;20.47;83.69
34185;BME280;20454;48.100;11.776;2022-08-01T20:01:59;95536.75;;;20.41;83.58
34185;BME280;20454;48.100;11.776;2022-08-01T20:04:26;95545.16;;;20.34;83.30
34185;BME280;20454;48.100;11.776;2022-08-01T20:06:53;95543.06;;;20.27;86.63
34185;BME280;20454;48.100;11.776;2022-08-01T20:09:19;95546.56;;;20.21;86.26
34185;BME280;20454;48.100;11.776;2022-08-01T20:11:52;95544.47;;;20.14;86.26
34185;BME280;20454;48.100;11.776;2022-08-01T20:14:21;95546.06;;;20.12;85.92
34185;BME280;20454;48.100;11.776;2022-08-01T20:16:49;95556.09;;;20.09;85.03
34185;BME280;20454;48.100;11.776;2022-08-01T20:19:17;95567.78;;;20.08;84.62
34185;BME280;20454;48.100;11.776;2022-08-01T20:21:51;95559.69;;;20.06;85.50
34185;BME280;20454;48.100;11.776;2022-08-01T20:24:19;95563.25;;;20.03;86.30
34185;BME280;20454;48.100;11.776;2022-08-01T20:26:49;95580.72;;;20.09;86.49
34185;BME280;20454;48.100;11.776;2022-08-01T20:29:17;95593.25;;;20.11;86.61
34185;BME280;20454;48.100;11.776;2022-08-01T20:31:48;95583.16;;;20.10;84.39
34185;BME280;20454;48.100;11.776;2022-08-01T20:34:22;95573.06;;;20.09;84.83
34185;BME280;20454;48.100;11.776;2022-08-01T20:36:50;95578.81;;;20.16;88.22
34185;BME280;20454;48.100;11.776;2022-08-01T20:39:19;95569.84;;;20.11;89.09
34185;BME280;20454;48.100;11.776;2022-08-01T20:41:51;95567.81;;;20.11;89.67
34185;BME280;20454;48.100;11.776;2022-08-01T20:44:21;95561.75;;;20.09;90.85
34185;BME280;20454;48.100;11.776;2022-08-01T20:46:48;95553.56;;;20.04;90.96
34185;BME280;20454;48.100;11.776;2022-08-01T20:49:15;95546.28;;;20.03;92.53
34185;BME280;20454;48.100;11.776;2022-08-01T20:51:42;95544.97;;;19.97;94.01
34185;BME280;20454;48.100;11.776;2022-08-01T20:54:07;95544.56;;;19.95;94.78
34185;BME280;20454;48.100;11.776;2022-08-01T20:59:41;95560.66;;;19.91;94.69
34185;BME280;20454;48.100;11.776;2022-08-01T21:05:09;95555.75;;;19.88;95.20
34185;BME280;20454;48.100;11.776;2022-08-01T21:07:50;95561.78;;;19.87;94.89
34185;BME280;20454;48.100;11.776;2022-08-01T21:10:20;95565.75;;;19.82;95.00
34185;BME280;20454;48.100;11.776;2022-08-01T21:13:10;95565.69;;;19.79;94.77
34185;BME280;20454;48.100;11.776;2022-08-01T21:15:46;95566.09;;;19.77;94.04
34185;BME280;20454;48.100;11.776;2022-08-01T21:18:18;95573.72;;;19.77;93.39
34185;BME280;20454;48.100;11.776;2022-08-01T21:21:24;95580.19;;;19.77;93.04
34185;BME280;20454;48.100;11.776;2022-08-01T21:24:06;95577.38;;;19.77;93.48
34185;BME280;20454;48.100;11.776;2022-08-01T21:26:35;95578.13;;;19.74;93.15
34185;BME280;20454;48.100;11.776;2022-08-01T21:29:05;95579.69;;;19.72;92.54
34185;BME280;20454;48.100;11.776;2022-08-01T21:31:33;95588.22;;;19.75;92.87
34185;BME280;20454;48.100;11.776;2022-08-01T21:34:04;95582.13;;;19.73;93.08
34185;BME280;20454;48.100;11.776;2022-08-01T21:36:33;95592.66;;;19.76;92.76
34185;BME280;20454;48.100;11.776;2022-08-01T21:39:01;95599.91;;;19.74;92.85
34185;BME280;20454;48.100;11.776;2022-08-01T21:41:29;95608.81;;;19.76;93.05
34185;BME280;20454;48.100;11.776;2022-08-01T21:44:00;95612.38;;;19.73;92.91
34185;BME280;20454;48.100;11.776;2022-08-01T21:46:28;95630.97;;;19.74;92.34
34185;BME280;20454;48.100;11.776;2022-08-01T21:48:56;95644.69;;;19.75;91.74
34185;BME280;20454;48.100;11.776;2022-08-01T21:51:48;95645.94;;;19.78;92.51
34185;BME280;20454;48.100;11.776;2022-08-01T22:00:16;95654.41;;;19.78;92.31
34185;BME280;20454;48.100;11.776;2022-08-01T22:03:00;95656.03;;;19.79;93.15